createdAt,value
2023-04-26T00:03:11.760Z,1.13
2023-04-26T00:05:21.675Z,1.63
2023-04-26T00:08:21.401Z,1.75
2023-04-26T00:10:51.196Z,2.30
2023-04-26T00:14:16.899Z,2.15
2023-04-26T00:17:32.637Z,1.50
2023-04-26T00:20:00.265Z,1.40
2023-04-26T00:25:32.840Z,1.70
2023-04-26T00:28:28.190Z,1.80
2023-04-26T00:31:25.333Z,1.75
2023-04-26T00:34:15.362Z,1.90
2023-04-26T00:37:10.941Z,1.95
2023-04-26T00:42:28.968Z,2.00
2023-04-26T00:45:12.035Z,1.98
2023-04-26T00:47:48.889Z,1.33
2023-04-26T00:50:21.668Z,2.15
2023-04-26T00:53:28.545Z,1.48
2023-04-26T00:58:56.738Z,1.50
2023-04-26T01:01:24.853Z,1.35
2023-04-26T01:03:52.371Z,1.27
2023-04-26T01:06:29.038Z,1.50
2023-04-26T01:09:22.566Z,1.58
2023-04-26T01:12:43.976Z,1.38
2023-04-26T01:15:25.429Z,1.73
2023-04-26T01:17:56.014Z,1.55
2023-04-26T01:20:33.309Z,2.10
2023-04-26T01:23:45.338Z,1.67
2023-04-26T01:29:32.597Z,1.70
2023-04-26T01:32:38.175Z,1.43
2023-04-26T01:35:24.267Z,1.50
2023-04-26T01:41:12.430Z,1.88
2023-04-26T01:44:01.871Z,1.90
2023-04-26T01:46:47.259Z,1.85
2023-04-26T01:49:35.983Z,1.90
2023-04-26T01:52:08.394Z,2.10
2023-04-26T02:00:27.496Z,2.25
2023-04-26T02:03:07.514Z,2.10
2023-04-26T02:05:41.107Z,2.30
2023-04-26T02:08:08.965Z,2.45
2023-04-26T02:10:41.975Z,2.25
2023-04-26T02:13:13.743Z,2.17
2023-04-26T02:15:47.191Z,2.10
2023-04-26T02:18:25.864Z,2.10
2023-04-26T02:20:59.054Z,1.90
2023-04-26T02:23:34.629Z,2.20
2023-04-26T02:28:52.194Z,2.00
2023-04-26T02:31:56.276Z,2.10
2023-04-26T02:34:31.996Z,2.47
2023-04-26T02:37:08.981Z,1.90
2023-04-26T02:39:40.225Z,2.03
2023-04-26T02:42:15.891Z,2.00
2023-04-26T02:47:29.224Z,2.15
2023-04-26T02:50:09.046Z,2.10
2023-04-26T02:52:57.183Z,2.40
2023-04-26T02:55:46.237Z,2.22
2023-04-26T02:58:43.470Z,2.70
2023-04-26T03:01:10.621Z,2.20
2023-04-26T03:03:38.299Z,2.15
2023-04-26T03:06:05.770Z,2.20
2023-04-26T03:08:35.073Z,2.13
2023-04-26T03:11:02.259Z,2.25
2023-04-26T03:13:34.815Z,2.28
2023-04-26T03:16:16.922Z,2.13
2023-04-26T03:18:44.069Z,2.28
2023-04-26T03:21:12.033Z,2.00
2023-04-26T03:26:05.955Z,2.13
2023-04-26T03:28:32.653Z,2.03
2023-04-26T03:30:59.560Z,2.40
2023-04-26T03:33:26.570Z,2.10
2023-04-26T03:35:56.311Z,2.05
2023-04-26T03:38:23.827Z,1.90
2023-04-26T03:40:50.523Z,2.30
2023-04-26T03:43:17.313Z,2.42
2023-04-26T03:45:47.397Z,2.30
2023-04-26T03:48:14.153Z,1.77
2023-04-26T03:50:41.217Z,2.15
2023-04-26T03:53:07.978Z,2.07
2023-04-26T03:55:34.734Z,2.22
2023-04-26T03:58:06.124Z,1.83
2023-04-26T04:00:32.922Z,1.95
2023-04-26T04:02:59.775Z,2.08
2023-04-26T04:05:27.235Z,1.98
2023-04-26T04:07:54.132Z,1.90
2023-04-26T04:10:23.241Z,1.98
2023-04-26T04:12:51.214Z,2.28
2023-04-26T04:17:49.646Z,2.40
2023-04-26T04:20:20.726Z,2.30
2023-04-26T04:22:48.514Z,2.17
2023-04-26T04:25:15.394Z,2.38
2023-04-26T04:27:43.915Z,2.40
2023-04-26T04:30:18.626Z,2.17
2023-04-26T04:32:47.047Z,2.40
2023-04-26T04:35:14.456Z,2.28
2023-04-26T04:37:44.759Z,2.80
2023-04-26T04:40:21.427Z,2.95
2023-04-26T04:42:48.649Z,2.80
2023-04-26T04:45:15.868Z,3.05
2023-04-26T04:47:49.998Z,3.17
2023-04-26T04:50:20.820Z,2.78
2023-04-26T04:53:10.944Z,2.97
2023-04-26T04:55:38.250Z,3.60
2023-04-26T04:58:05.300Z,2.90
2023-04-26T05:00:33.414Z,3.53
2023-04-26T05:03:00.848Z,3.75
2023-04-26T05:05:28.886Z,3.10
2023-04-26T05:07:56.131Z,3.35
2023-04-26T05:10:23.319Z,3.63
2023-04-26T05:12:52.780Z,3.72
2023-04-26T05:15:19.713Z,3.67
2023-04-26T05:17:46.713Z,4.83
2023-04-26T05:20:15.176Z,5.78
2023-04-26T05:22:44.953Z,5.95
2023-04-26T05:25:20.251Z,6.50
2023-04-26T05:27:49.119Z,6.82
2023-04-26T05:30:15.895Z,7.50
2023-04-26T05:32:42.967Z,7.85
2023-04-26T05:35:09.979Z,8.85
2023-04-26T05:37:36.989Z,8.90
2023-04-26T05:40:04.970Z,8.37
2023-04-26T05:42:31.827Z,7.63
2023-04-26T05:44:59.300Z,7.55
2023-04-26T05:47:26.395Z,4.68
2023-04-26T05:49:56.063Z,3.80
2023-04-26T05:52:23.073Z,3.67
2023-04-26T05:54:49.992Z,2.90
2023-04-26T05:57:18.093Z,3.87
2023-04-26T05:59:45.353Z,3.25
2023-04-26T06:02:15.324Z,3.20
2023-04-26T06:04:42.444Z,2.95
2023-04-26T06:07:09.866Z,3.15
2023-04-26T06:09:36.599Z,3.30
2023-04-26T06:12:06.398Z,3.10
2023-04-26T06:14:33.744Z,2.20
2023-04-26T06:17:01.153Z,2.60
2023-04-26T06:19:28.156Z,1.85
2023-04-26T06:22:05.077Z,2.30
2023-04-26T06:24:32.685Z,2.40
2023-04-26T06:26:59.494Z,2.10
2023-04-26T06:29:37.149Z,1.85
2023-04-26T06:34:30.817Z,1.47
2023-04-26T06:37:01.566Z,2.20
2023-04-26T06:39:30.336Z,1.70
2023-04-26T06:41:57.576Z,1.60
2023-04-26T06:44:27.808Z,1.48
2023-04-26T06:46:55.948Z,1.40
2023-04-26T06:49:33.346Z,1.40
2023-04-26T06:52:00.877Z,1.50
2023-04-26T06:54:29.581Z,1.70
2023-04-26T06:57:01.362Z,1.80
2023-04-26T06:59:31.559Z,1.48
2023-04-26T07:02:03.540Z,1.60
2023-04-26T07:04:35.384Z,1.58
2023-04-26T07:07:03.449Z,1.38
2023-04-26T07:09:30.938Z,1.40
2023-04-26T07:11:57.945Z,2.03
2023-04-26T07:14:25.815Z,1.50
2023-04-26T07:17:00.869Z,1.20
2023-04-26T07:19:44.418Z,1.13
2023-04-26T07:22:11.240Z,1.15
2023-04-26T07:25:12.660Z,1.27
2023-04-26T07:27:48.177Z,1.40
2023-04-26T07:30:15.249Z,1.25
2023-04-26T07:32:42.393Z,1.23
2023-04-26T07:35:16.583Z,1.38
2023-04-26T07:37:45.160Z,1.27
2023-04-26T07:40:14.073Z,1.33
2023-04-26T07:42:41.182Z,1.50
2023-04-26T07:45:09.251Z,1.42
2023-04-26T07:47:41.912Z,1.20
2023-04-26T07:50:15.288Z,1.20
2023-04-26T07:52:47.755Z,1.20
2023-04-26T07:55:16.436Z,1.50
2023-04-26T07:57:57.977Z,1.73
2023-04-26T08:00:27.979Z,1.63
2023-04-26T08:02:55.355Z,1.10
2023-04-26T08:05:22.827Z,1.10
2023-04-26T08:07:52.744Z,0.93
2023-04-26T08:10:19.572Z,1.23
2023-04-26T08:12:49.943Z,1.27
2023-04-26T08:18:30.829Z,0.90
2023-04-26T08:23:50.211Z,0.77
2023-04-26T08:26:16.955Z,1.25
2023-04-26T08:28:47.139Z,1.10
2023-04-26T08:31:23.132Z,1.20
2023-04-26T08:33:50.157Z,0.80
2023-04-26T08:36:17.151Z,0.75
2023-04-26T08:38:43.886Z,0.80
2023-04-26T08:41:17.002Z,1.00
2023-04-26T08:43:44.110Z,1.00
2023-04-26T08:46:19.624Z,0.80
2023-04-26T08:48:54.436Z,1.00
2023-04-26T08:51:22.661Z,1.05
2023-04-26T08:53:53.608Z,0.70
2023-04-26T08:56:23.480Z,0.98
2023-04-26T08:58:51.265Z,1.20
2023-04-26T09:01:19.203Z,0.98
2023-04-26T09:03:47.291Z,0.90
2023-04-26T09:06:15.378Z,1.02
2023-04-26T09:08:43.362Z,0.80
2023-04-26T09:11:10.220Z,0.75
2023-04-26T09:13:37.230Z,1.10
2023-04-26T09:16:05.128Z,0.95
2023-04-26T09:18:34.212Z,0.75
2023-04-26T09:21:07.708Z,0.75
2023-04-26T09:23:35.399Z,1.00
2023-04-26T09:28:49.070Z,1.10
2023-04-26T09:31:38.288Z,1.00
2023-04-26T09:34:05.579Z,1.10
2023-04-26T09:36:34.946Z,1.30
2023-04-26T09:39:04.065Z,0.55
2023-04-26T09:41:44.851Z,1.13
2023-04-26T09:44:23.277Z,0.90
2023-04-26T09:47:00.337Z,1.23
2023-04-26T09:49:29.942Z,0.80
2023-04-26T09:52:07.408Z,1.23
2023-04-26T09:55:35.266Z,0.85
2023-04-26T09:58:11.103Z,0.60
2023-04-26T10:00:42.466Z,0.55
2023-04-26T10:03:10.064Z,0.57
2023-04-26T10:08:09.070Z,0.57
2023-04-26T10:10:37.241Z,1.20
2023-04-26T10:13:06.719Z,0.50
2023-04-26T10:15:34.976Z,0.70
2023-04-26T10:18:05.705Z,0.60
2023-04-26T10:20:32.706Z,0.90
2023-04-26T10:23:06.465Z,0.60
2023-04-26T10:25:42.332Z,0.60
2023-04-26T10:28:12.293Z,0.60
2023-04-26T10:30:59.339Z,0.43
2023-04-26T10:33:29.504Z,0.30
2023-04-26T10:36:08.091Z,0.60
2023-04-26T10:38:37.496Z,0.47
2023-04-26T10:41:30.953Z,0.30
2023-04-26T10:44:00.391Z,0.57
2023-04-26T10:46:39.948Z,0.30
2023-04-26T10:49:17.896Z,0.40
2023-04-26T10:52:12.941Z,0.70
2023-04-26T10:55:00.302Z,0.70
2023-04-26T10:58:28.063Z,0.80
2023-04-26T11:01:09.823Z,0.50
2023-04-26T11:03:37.331Z,0.55
2023-04-26T11:08:37.155Z,0.30
2023-04-26T11:11:04.267Z,0.40
2023-04-26T11:13:31.928Z,0.28
2023-04-26T11:16:10.957Z,1.02
2023-04-26T11:18:43.036Z,1.10
2023-04-26T11:21:10.568Z,0.40
2023-04-26T11:23:37.684Z,0.30
2023-04-26T11:26:09.184Z,0.30
2023-04-26T11:28:38.284Z,0.50
2023-04-26T11:31:09.191Z,0.65
2023-04-26T11:33:36.178Z,0.28
2023-04-26T11:36:04.116Z,0.30
2023-04-26T11:38:31.185Z,0.43
2023-04-26T11:41:03.624Z,0.40
2023-04-26T11:43:40.510Z,0.40
2023-04-26T11:46:09.511Z,0.45
2023-04-26T11:48:37.663Z,0.45
2023-04-26T11:51:06.170Z,0.45
2023-04-26T11:53:43.234Z,0.35
2023-04-26T11:56:24.517Z,0.28
2023-04-26T11:59:18.704Z,0.30
2023-04-26T12:02:29.305Z,0.30
2023-04-26T12:06:13.392Z,0.30
2023-04-26T12:09:32.239Z,0.30
2023-04-26T12:11:52.771Z,0.40
2023-04-26T12:15:27.472Z,0.28
2023-04-26T12:19:09.598Z,0.50
2023-04-26T12:22:08.074Z,0.32
2023-04-26T12:25:14.097Z,1.05
2023-04-26T12:30:55.376Z,0.47
2023-04-26T12:34:25.053Z,0.35
2023-04-26T12:37:25.467Z,0.40
2023-04-26T12:46:50.136Z,0.35
2023-04-26T12:49:17.208Z,0.30
2023-04-26T12:52:20.609Z,0.30
2023-04-26T12:54:49.405Z,0.40
2023-04-26T12:57:16.318Z,0.50
2023-04-26T12:59:57.404Z,0.50
2023-04-26T13:02:25.328Z,0.30
2023-04-26T13:04:52.856Z,0.32
2023-04-26T13:07:20.627Z,0.30
2023-04-26T13:15:02.034Z,0.63
2023-04-26T13:17:28.841Z,0.38
2023-04-26T13:19:58.741Z,0.43
2023-04-26T13:22:32.069Z,0.50
2023-04-26T13:24:59.069Z,0.30
2023-04-26T13:27:31.352Z,0.40
2023-04-26T13:29:58.739Z,0.40
2023-04-26T13:32:25.849Z,0.32
2023-04-26T13:34:53.419Z,0.45
2023-04-26T13:37:21.379Z,0.55
2023-04-26T13:39:48.766Z,0.45
2023-04-26T13:42:24.836Z,0.30
2023-04-26T13:44:52.064Z,0.50
2023-04-26T13:47:19.217Z,0.60
2023-04-26T13:49:46.291Z,0.32
2023-04-26T13:52:13.095Z,0.50
2023-04-26T13:54:42.648Z,0.60
2023-04-26T13:57:09.429Z,0.60
2023-04-26T13:59:36.259Z,0.43
2023-04-26T14:02:03.852Z,0.60
2023-04-26T14:04:43.686Z,0.40
2023-04-26T14:07:20.318Z,0.57
2023-04-26T14:09:51.115Z,0.30
2023-04-26T14:12:48.033Z,0.60
2023-04-26T14:15:24.677Z,0.50
2023-04-26T14:17:58.004Z,0.40
2023-04-26T14:20:28.462Z,0.77
2023-04-26T14:23:26.758Z,0.63
2023-04-26T14:25:55.497Z,0.57
2023-04-26T14:28:32.186Z,0.47
2023-04-26T14:30:59.420Z,0.70
2023-04-26T14:33:38.631Z,0.50
2023-04-26T14:36:06.671Z,0.70
2023-04-26T14:38:37.595Z,0.47
2023-04-26T14:41:46.093Z,0.68
2023-04-26T14:44:35.527Z,0.50
2023-04-26T14:47:06.495Z,0.77
2023-04-26T14:52:31.996Z,0.55
2023-04-26T14:55:16.978Z,0.57
2023-04-26T14:58:08.163Z,0.70
2023-04-26T15:00:34.994Z,0.55
2023-04-26T15:03:03.106Z,0.70
2023-04-26T15:05:30.216Z,0.80
2023-04-26T15:08:00.723Z,0.70
2023-04-26T15:10:28.313Z,0.43
2023-04-26T15:12:58.537Z,0.60
2023-04-26T15:15:25.384Z,0.52
2023-04-26T15:17:53.049Z,0.60
2023-04-26T15:20:24.999Z,0.63
2023-04-26T15:22:51.760Z,0.70
2023-04-26T15:25:19.077Z,1.10
2023-04-26T15:27:47.030Z,0.95
2023-04-26T15:30:14.350Z,0.65
2023-04-26T15:32:50.311Z,0.85
2023-04-26T15:35:17.592Z,1.02
2023-04-26T15:37:44.891Z,1.30
2023-04-26T15:40:12.348Z,1.17
2023-04-26T15:42:39.370Z,0.70
2023-04-26T15:45:06.684Z,0.98
2023-04-26T15:47:35.700Z,0.70
2023-04-26T15:50:10.752Z,0.85
2023-04-26T15:52:39.416Z,0.80
2023-04-26T15:55:10.249Z,0.88
2023-04-26T15:57:38.019Z,0.63
2023-04-26T16:00:09.284Z,0.80
2023-04-26T16:02:37.553Z,0.70
2023-04-26T16:05:05.317Z,0.70
2023-04-26T16:07:32.117Z,0.60
2023-04-26T16:09:59.080Z,0.63
2023-04-26T16:12:25.940Z,1.15
2023-04-26T16:14:53.434Z,0.88
2023-04-26T16:17:20.432Z,0.68
2023-04-26T16:19:48.830Z,0.82
2023-04-26T16:25:24.834Z,0.70
2023-04-26T16:27:51.719Z,0.60
2023-04-26T16:30:19.252Z,0.23
2023-04-26T16:32:46.167Z,0.45
2023-04-26T16:35:14.738Z,0.73
2023-04-26T16:37:44.324Z,0.55
2023-04-26T16:40:11.741Z,0.50
2023-04-26T16:42:46.664Z,0.70
2023-04-26T16:45:16.548Z,0.70
2023-04-26T16:47:47.596Z,0.60
2023-04-26T16:50:14.891Z,0.68
2023-04-26T16:56:16.441Z,0.70
2023-04-26T16:58:52.262Z,0.85
2023-04-26T17:01:22.934Z,26.70
2023-04-26T17:03:56.389Z,28.27
2023-04-26T17:09:07.297Z,4.55
2023-04-26T17:11:47.194Z,2.45
2023-04-26T17:15:14.372Z,2.13
2023-04-26T17:18:11.343Z,2.20
2023-04-26T17:21:06.056Z,2.88
2023-04-26T17:23:40.365Z,2.35
2023-04-26T17:27:00.287Z,4.90
2023-04-26T17:29:27.432Z,3.67
2023-04-26T17:32:38.964Z,2.43
2023-04-26T17:35:19.328Z,2.10
2023-04-26T17:37:50.451Z,2.55
2023-04-26T17:40:36.482Z,2.30
2023-04-26T17:46:03.645Z,1.85
2023-04-26T17:52:02.037Z,21.42
2023-04-26T17:54:32.774Z,9.52
2023-04-26T17:57:03.527Z,4.95
2023-04-26T17:59:31.820Z,2.92
2023-04-26T18:01:59.818Z,1.80
2023-04-26T18:05:06.643Z,2.40
2023-04-26T18:07:43.874Z,1.90
2023-04-26T18:10:27.043Z,1.80
2023-04-26T18:13:26.717Z,1.70
2023-04-26T18:16:09.772Z,1.10
2023-04-26T18:19:23.520Z,1.38
2023-04-26T18:25:53.428Z,3.22
2023-04-26T18:28:59.350Z,2.90
2023-04-26T18:32:09.094Z,1.58
2023-04-26T18:35:21.731Z,1.88
2023-04-26T18:37:48.798Z,1.73
2023-04-26T18:40:58.257Z,2.00
2023-04-26T18:43:47.726Z,1.85
2023-04-26T18:46:14.845Z,1.60
2023-04-26T18:49:09.018Z,1.83
2023-04-26T18:51:52.107Z,1.45
2023-04-26T18:54:19.049Z,1.45
2023-04-26T18:57:16.328Z,1.60
2023-04-26T19:00:13.159Z,1.42
2023-04-26T19:05:43.009Z,2.20
2023-04-26T19:08:23.920Z,1.83
2023-04-26T19:11:05.252Z,1.48
2023-04-26T19:13:50.247Z,1.60
2023-04-26T19:16:21.681Z,1.15
2023-04-26T19:18:49.197Z,1.20
2023-04-26T19:21:16.533Z,1.05
2023-04-26T19:23:45.397Z,1.08
2023-04-26T19:26:13.640Z,1.40
2023-04-26T19:28:41.071Z,1.00
2023-04-26T19:31:08.306Z,1.35
2023-04-26T19:33:42.185Z,1.63
2023-04-26T19:36:10.697Z,1.20
2023-04-26T19:38:37.697Z,1.60
2023-04-26T19:41:04.450Z,1.33
2023-04-26T19:43:31.542Z,1.20
2023-04-26T19:45:58.658Z,2.15
2023-04-26T19:48:26.495Z,2.20
2023-04-26T19:50:53.246Z,1.83
2023-04-26T19:53:20.029Z,1.85
2023-04-26T19:55:46.776Z,1.80
2023-04-26T19:58:13.547Z,1.50
2023-04-26T20:00:40.709Z,1.70
2023-04-26T20:03:08.001Z,1.88
2023-04-26T20:05:35.659Z,1.85
2023-04-26T20:08:02.795Z,2.00
2023-04-26T20:10:34.361Z,2.05
2023-04-26T20:13:01.749Z,1.70
2023-04-26T20:15:31.004Z,1.58
2023-04-26T20:17:59.359Z,1.73
2023-04-26T20:20:26.231Z,1.60
2023-04-26T20:22:52.926Z,1.95
2023-04-26T20:25:20.242Z,1.73
2023-04-26T20:27:47.785Z,2.15
2023-04-26T20:30:15.438Z,2.00
2023-04-26T20:32:42.776Z,1.88
2023-04-26T20:35:09.862Z,1.65
2023-04-26T20:37:36.536Z,1.90
2023-04-26T20:40:03.938Z,1.70
2023-04-26T20:42:30.991Z,1.70
2023-04-26T20:44:59.823Z,2.13
2023-04-26T20:47:28.039Z,1.80
2023-04-26T20:49:55.084Z,1.55
2023-04-26T20:52:21.821Z,1.43
2023-04-26T20:54:48.584Z,1.50
2023-04-26T20:57:16.278Z,1.42
2023-04-26T20:59:43.058Z,1.85
2023-04-26T21:02:10.161Z,1.65
2023-04-26T21:04:39.101Z,1.75
2023-04-26T21:07:06.182Z,1.58
2023-04-26T21:09:32.931Z,1.90
2023-04-26T21:11:59.931Z,1.92
2023-04-26T21:14:26.896Z,1.53
2023-04-26T21:16:54.081Z,1.97
2023-04-26T21:19:21.228Z,1.90
2023-04-26T21:21:48.040Z,2.08
2023-04-26T21:24:14.879Z,1.98
2023-04-26T21:26:41.609Z,1.70
2023-04-26T21:29:08.931Z,2.10
2023-04-26T21:31:35.921Z,1.75
2023-04-26T21:34:02.901Z,2.10
2023-04-26T21:36:30.089Z,1.73
2023-04-26T21:39:09.979Z,1.83
2023-04-26T21:41:37.076Z,2.20
2023-04-26T21:44:04.455Z,1.80
2023-04-26T21:46:31.469Z,1.88
2023-04-26T21:48:58.406Z,2.38
2023-04-26T21:51:25.588Z,2.47
2023-04-26T21:53:52.348Z,2.30
2023-04-26T21:56:19.132Z,2.13
2023-04-26T21:58:46.352Z,2.20
2023-04-26T22:01:15.124Z,2.25
2023-04-26T22:03:42.213Z,2.78
2023-04-26T22:06:09.775Z,2.22
2023-04-26T22:08:36.849Z,2.30
2023-04-26T22:11:04.296Z,2.03
2023-04-26T22:13:32.467Z,2.38
2023-04-26T22:15:59.293Z,2.10
2023-04-26T22:18:26.557Z,1.77
2023-04-26T22:20:53.791Z,1.83
2023-04-26T22:23:20.585Z,1.52
2023-04-26T22:25:47.331Z,1.63
2023-04-26T22:28:14.065Z,1.30
2023-04-26T22:30:40.979Z,1.30
2023-04-26T22:33:07.874Z,0.82
2023-04-26T22:35:35.098Z,0.73
2023-04-26T22:38:02.058Z,0.82
2023-04-26T22:40:29.306Z,0.80
2023-04-26T22:42:56.123Z,0.98
2023-04-26T22:45:23.059Z,1.20
2023-04-26T22:47:49.986Z,0.80
2023-04-26T22:50:17.064Z,0.67
2023-04-26T22:52:43.879Z,0.93
2023-04-26T22:55:10.712Z,0.40
2023-04-26T22:57:37.859Z,0.50
2023-04-26T23:00:06.542Z,1.38
2023-04-26T23:02:33.339Z,1.38
2023-04-26T23:05:00.428Z,1.67
2023-04-26T23:07:32.496Z,1.15
2023-04-26T23:10:11.796Z,0.90
2023-04-26T23:12:39.451Z,0.75
2023-04-26T23:15:19.952Z,1.02
2023-04-26T23:17:54.149Z,0.80
2023-04-26T23:20:21.790Z,0.80
2023-04-26T23:22:49.427Z,0.75
2023-04-26T23:25:18.160Z,0.75
2023-04-26T23:27:47.015Z,1.23
2023-04-26T23:30:14.926Z,1.38
2023-04-26T23:32:42.793Z,1.48
2023-04-26T23:38:01.264Z,1.42
2023-04-26T23:43:14.604Z,1.45
2023-04-26T23:45:48.228Z,1.90
2023-04-26T23:48:21.930Z,1.98
2023-04-26T23:50:51.438Z,1.85
2023-04-26T23:53:27.016Z,1.92
2023-04-26T23:56:18.012Z,2.20
2023-04-26T23:58:45.952Z,1.70
